sensor_id;sensor_type;location;lat;lon;timestamp;temperature;humidity
72814;DHT22;60945;48.516;-2.768;2023-02-15T00:01:42;11.00;52.60
72814;DHT22;60945;48.516;-2.768;2023-02-15T00:04:08;11.00;52.50
72814;DHT22;60945;48.516;-2.768;2023-02-15T00:06:35;10.90;52.70
72814;DHT22;60945;48.516;-2.768;2023-02-15T00:09:02;11.00;52.40
72814;DHT22;60945;48.516;-2.768;2023-02-15T00:11:28;10.90;52.50
72814;DHT22;60945;48.516;-2.768;2023-02-15T00:14:13;11.00;52.30
72814;DHT22;60945;48.516;-2.768;2023-02-15T00:16:39;10.90;52.60
72814;DHT22;60945;48.516;-2.768;2023-02-15T00:19:06;10.90;52.50
72814;DHT22;60945;48.516;-2.768;2023-02-15T00:21:32;10.70;53.10
72814;DHT22;60945;48.516;-2.768;2023-02-15T00:24:00;10.60;53.20
72814;DHT22;60945;48.516;-2.768;2023-02-15T00:26:26;10.90;52.70
72814;DHT22;60945;48.516;-2.768;2023-02-15T00:28:53;11.00;52.30
72814;DHT22;60945;48.516;-2.768;2023-02-15T00:31:19;10.80;52.70
72814;DHT22;60945;48.516;-2.768;2023-02-15T00:33:45;10.70;53.00
72814;DHT22;60945;48.516;-2.768;2023-02-15T00:36:11;10.80;52.90
72814;DHT22;60945;48.516;-2.768;2023-02-15T00:38:37;11.00;52.60
72814;DHT22;60945;48.516;-2.768;2023-02-15T00:41:05;11.00;52.60
72814;DHT22;60945;48.516;-2.768;2023-02-15T00:43:32;11.00;52.50
72814;DHT22;60945;48.516;-2.768;2023-02-15T00:45:58;11.00;52.60
72814;DHT22;60945;48.516;-2.768;2023-02-15T00:48:24;10.90;52.80
72814;DHT22;60945;48.516;-2.768;2023-02-15T00:50:56;11.10;52.70
72814;DHT22;60945;48.516;-2.768;2023-02-15T00:53:22;11.20;52.10
72814;DHT22;60945;48.516;-2.768;2023-02-15T00:55:48;11.20;52.30
72814;DHT22;60945;48.516;-2.768;2023-02-15T00:58:14;11.30;52.80
72814;DHT22;60945;48.516;-2.768;2023-02-15T01:00:42;11.30;53.00
72814;DHT22;60945;48.516;-2.768;2023-02-15T01:03:09;11.40;53.10
72814;DHT22;60945;48.516;-2.768;2023-02-15T01:05:35;11.30;53.00
72814;DHT22;60945;48.516;-2.768;2023-02-15T01:08:00;11.30;53.20
72814;DHT22;60945;48.516;-2.768;2023-02-15T01:10:29;11.00;53.40
72814;DHT22;60945;48.516;-2.768;2023-02-15T01:12:55;11.00;54.30
72814;DHT22;60945;48.516;-2.768;2023-02-15T01:15:21;10.90;54.80
72814;DHT22;60945;48.516;-2.768;2023-02-15T01:17:47;10.90;54.90
72814;DHT22;60945;48.516;-2.768;2023-02-15T01:20:20;11.00;54.50
72814;DHT22;60945;48.516;-2.768;2023-02-15T01:22:46;11.00;54.80
72814;DHT22;60945;48.516;-2.768;2023-02-15T01:25:12;11.00;55.00
72814;DHT22;60945;48.516;-2.768;2023-02-15T01:27:37;11.00;54.80
72814;DHT22;60945;48.516;-2.768;2023-02-15T01:30:03;11.10;55.20
72814;DHT22;60945;48.516;-2.768;2023-02-15T01:32:30;11.10;55.00
72814;DHT22;60945;48.516;-2.768;2023-02-15T01:34:56;11.20;54.80
72814;DHT22;60945;48.516;-2.768;2023-02-15T01:37:22;11.20;54.80
72814;DHT22;60945;48.516;-2.768;2023-02-15T01:39:50;11.20;55.00
72814;DHT22;60945;48.516;-2.768;2023-02-15T01:42:21;11.20;54.80
72814;DHT22;60945;48.516;-2.768;2023-02-15T01:44:54;11.30;55.20
72814;DHT22;60945;48.516;-2.768;2023-02-15T01:47:44;11.30;54.70
72814;DHT22;60945;48.516;-2.768;2023-02-15T01:50:32;11.20;55.20
72814;DHT22;60945;48.516;-2.768;2023-02-15T01:53:08;11.30;55.00
72814;DHT22;60945;48.516;-2.768;2023-02-15T01:55:57;11.20;55.30
72814;DHT22;60945;48.516;-2.768;2023-02-15T01:58:25;11.30;55.10
72814;DHT22;60945;48.516;-2.768;2023-02-15T02:00:51;11.30;55.00
72814;DHT22;60945;48.516;-2.768;2023-02-15T02:03:20;11.20;55.20
72814;DHT22;60945;48.516;-2.768;2023-02-15T02:05:48;11.20;55.30
72814;DHT22;60945;48.516;-2.768;2023-02-15T02:08:13;11.10;55.20
72814;DHT22;60945;48.516;-2.768;2023-02-15T02:10:39;11.00;55.60
72814;DHT22;60945;48.516;-2.768;2023-02-15T02:13:07;11.00;55.80
72814;DHT22;60945;48.516;-2.768;2023-02-15T02:16:27;11.10;55.50
72814;DHT22;60945;48.516;-2.768;2023-02-15T02:18:41;11.00;55.70
72814;DHT22;60945;48.516;-2.768;2023-02-15T02:23:51;11.10;55.80
72814;DHT22;60945;48.516;-2.768;2023-02-15T02:34:43;10.80;57.90
72814;DHT22;60945;48.516;-2.768;2023-02-15T02:43:04;10.60;58.30
72814;DHT22;60945;48.516;-2.768;2023-02-15T02:46:02;10.70;57.00
72814;DHT22;60945;48.516;-2.768;2023-02-15T02:48:33;10.50;57.30
72814;DHT22;60945;48.516;-2.768;2023-02-15T02:50:59;10.60;57.40
72814;DHT22;60945;48.516;-2.768;2023-02-15T02:53:27;10.50;58.20
72814;DHT22;60945;48.516;-2.768;2023-02-15T02:59:23;10.40;59.00
72814;DHT22;60945;48.516;-2.768;2023-02-15T03:02:01;10.50;59.10
72814;DHT22;60945;48.516;-2.768;2023-02-15T03:04:32;10.50;59.40
72814;DHT22;60945;48.516;-2.768;2023-02-15T03:07:04;10.50;59.10
72814;DHT22;60945;48.516;-2.768;2023-02-15T03:09:38;10.50;58.80
72814;DHT22;60945;48.516;-2.768;2023-02-15T03:12:29;10.60;58.10
72814;DHT22;60945;48.516;-2.768;2023-02-15T03:15:25;10.70;58.10
72814;DHT22;60945;48.516;-2.768;2023-02-15T03:17:56;10.70;58.00
72814;DHT22;60945;48.516;-2.768;2023-02-15T03:20:27;10.70;56.90
72814;DHT22;60945;48.516;-2.768;2023-02-15T03:22:58;10.60;57.00
72814;DHT22;60945;48.516;-2.768;2023-02-15T03:25:34;10.80;57.80
72814;DHT22;60945;48.516;-2.768;2023-02-15T03:28:18;10.70;56.40
72814;DHT22;60945;48.516;-2.768;2023-02-15T03:30:46;10.60;56.30
72814;DHT22;60945;48.516;-2.768;2023-02-15T03:33:14;10.50;56.50
72814;DHT22;60945;48.516;-2.768;2023-02-15T03:35:58;10.50;56.40
72814;DHT22;60945;48.516;-2.768;2023-02-15T03:39:04;10.50;56.60
72814;DHT22;60945;48.516;-2.768;2023-02-15T03:41:30;10.40;57.10
72814;DHT22;60945;48.516;-2.768;2023-02-15T03:44:11;10.40;56.80
72814;DHT22;60945;48.516;-2.768;2023-02-15T03:46:47;10.50;56.60
72814;DHT22;60945;48.516;-2.768;2023-02-15T03:52:02;10.50;56.80
72814;DHT22;60945;48.516;-2.768;2023-02-15T03:54:31;10.40;57.00
72814;DHT22;60945;48.516;-2.768;2023-02-15T03:57:28;10.50;56.60
72814;DHT22;60945;48.516;-2.768;2023-02-15T04:00:17;10.60;57.00
72814;DHT22;60945;48.516;-2.768;2023-02-15T04:03:09;10.50;56.20
72814;DHT22;60945;48.516;-2.768;2023-02-15T04:05:36;10.60;56.10
72814;DHT22;60945;48.516;-2.768;2023-02-15T04:08:02;10.60;55.80
72814;DHT22;60945;48.516;-2.768;2023-02-15T04:10:30;10.70;55.70
72814;DHT22;60945;48.516;-2.768;2023-02-15T04:13:14;10.60;55.90
72814;DHT22;60945;48.516;-2.768;2023-02-15T04:15:40;10.70;56.10
72814;DHT22;60945;48.516;-2.768;2023-02-15T04:18:24;10.70;55.80
72814;DHT22;60945;48.516;-2.768;2023-02-15T04:21:09;10.70;55.60
72814;DHT22;60945;48.516;-2.768;2023-02-15T04:23:53;10.70;55.40
72814;DHT22;60945;48.516;-2.768;2023-02-15T04:26:37;10.80;55.50
72814;DHT22;60945;48.516;-2.768;2023-02-15T04:29:02;10.80;55.10
72814;DHT22;60945;48.516;-2.768;2023-02-15T04:31:28;10.80;55.00
72814;DHT22;60945;48.516;-2.768;2023-02-15T04:33:54;10.70;55.30
72814;DHT22;60945;48.516;-2.768;2023-02-15T04:36:19;10.50;55.80
72814;DHT22;60945;48.516;-2.768;2023-02-15T04:38:45;10.40;56.10
72814;DHT22;60945;48.516;-2.768;2023-02-15T04:41:11;10.50;55.80
72814;DHT22;60945;48.516;-2.768;2023-02-15T04:43:38;10.60;55.70
72814;DHT22;60945;48.516;-2.768;2023-02-15T04:46:04;10.50;55.80
72814;DHT22;60945;48.516;-2.768;2023-02-15T04:48:29;10.20;56.80
72814;DHT22;60945;48.516;-2.768;2023-02-15T04:50:55;10.20;57.00
72814;DHT22;60945;48.516;-2.768;2023-02-15T04:53:21;10.30;56.70
72814;DHT22;60945;48.516;-2.768;2023-02-15T04:55:47;10.30;56.80
72814;DHT22;60945;48.516;-2.768;2023-02-15T04:58:12;10.40;56.70
72814;DHT22;60945;48.516;-2.768;2023-02-15T05:00:40;10.50;56.20
72814;DHT22;60945;48.516;-2.768;2023-02-15T05:03:06;10.30;56.60
72814;DHT22;60945;48.516;-2.768;2023-02-15T05:05:32;10.30;56.60
72814;DHT22;60945;48.516;-2.768;2023-02-15T05:07:57;10.20;56.30
72814;DHT22;60945;48.516;-2.768;2023-02-15T05:10:23;10.20;56.60
72814;DHT22;60945;48.516;-2.768;2023-02-15T05:12:49;10.40;57.00
72814;DHT22;60945;48.516;-2.768;2023-02-15T05:15:14;10.30;56.50
72814;DHT22;60945;48.516;-2.768;2023-02-15T05:17:40;10.40;56.70
72814;DHT22;60945;48.516;-2.768;2023-02-15T05:20:06;10.40;56.60
72814;DHT22;60945;48.516;-2.768;2023-02-15T05:22:34;10.50;56.70
72814;DHT22;60945;48.516;-2.768;2023-02-15T05:25:00;10.40;56.40
72814;DHT22;60945;48.516;-2.768;2023-02-15T05:27:44;10.50;56.30
72814;DHT22;60945;48.516;-2.768;2023-02-15T05:30:28;10.30;56.70
72814;DHT22;60945;48.516;-2.768;2023-02-15T05:32:54;10.50;56.70
72814;DHT22;60945;48.516;-2.768;2023-02-15T05:35:19;10.40;56.60
72814;DHT22;60945;48.516;-2.768;2023-02-15T05:37:45;10.50;56.60
72814;DHT22;60945;48.516;-2.768;2023-02-15T05:40:11;10.30;56.80
72814;DHT22;60945;48.516;-2.768;2023-02-15T05:42:37;10.40;57.40
72814;DHT22;60945;48.516;-2.768;2023-02-15T05:45:02;10.50;56.90
72814;DHT22;60945;48.516;-2.768;2023-02-15T05:47:29;10.40;56.60
72814;DHT22;60945;48.516;-2.768;2023-02-15T05:49:54;10.30;56.80
72814;DHT22;60945;48.516;-2.768;2023-02-15T05:52:20;10.50;56.70
72814;DHT22;60945;48.516;-2.768;2023-02-15T05:54:46;10.40;56.80
72814;DHT22;60945;48.516;-2.768;2023-02-15T05:57:11;10.30;57.00
72814;DHT22;60945;48.516;-2.768;2023-02-15T05:59:37;10.20;58.10
72814;DHT22;60945;48.516;-2.768;2023-02-15T06:02:03;10.20;58.30
72814;DHT22;60945;48.516;-2.768;2023-02-15T06:04:28;10.10;58.60
72814;DHT22;60945;48.516;-2.768;2023-02-15T06:06:54;10.20;58.60
72814;DHT22;60945;48.516;-2.768;2023-02-15T06:09:19;10.20;58.30
72814;DHT22;60945;48.516;-2.768;2023-02-15T06:11:45;10.10;58.50
72814;DHT22;60945;48.516;-2.768;2023-02-15T06:14:11;10.10;58.30
72814;DHT22;60945;48.516;-2.768;2023-02-15T06:16:37;10.20;58.50
72814;DHT22;60945;48.516;-2.768;2023-02-15T06:19:03;10.10;59.10
72814;DHT22;60945;48.516;-2.768;2023-02-15T06:21:30;10.00;58.60
72814;DHT22;60945;48.516;-2.768;2023-02-15T06:23:56;9.90;59.30
72814;DHT22;60945;48.516;-2.768;2023-02-15T06:26:21;9.90;59.40
72814;DHT22;60945;48.516;-2.768;2023-02-15T06:28:47;9.80;60.00
72814;DHT22;60945;48.516;-2.768;2023-02-15T06:31:13;9.80;59.50
72814;DHT22;60945;48.516;-2.768;2023-02-15T06:33:38;9.70;60.00
72814;DHT22;60945;48.516;-2.768;2023-02-15T06:36:04;9.80;60.00
72814;DHT22;60945;48.516;-2.768;2023-02-15T06:38:30;9.70;60.00
72814;DHT22;60945;48.516;-2.768;2023-02-15T06:40:56;9.80;59.90
72814;DHT22;60945;48.516;-2.768;2023-02-15T06:43:22;9.70;60.30
72814;DHT22;60945;48.516;-2.768;2023-02-15T06:45:48;9.50;60.80
72814;DHT22;60945;48.516;-2.768;2023-02-15T06:48:13;9.60;61.00
72814;DHT22;60945;48.516;-2.768;2023-02-15T06:50:39;9.60;60.90
72814;DHT22;60945;48.516;-2.768;2023-02-15T06:53:05;9.70;60.60
72814;DHT22;60945;48.516;-2.768;2023-02-15T06:55:30;9.70;60.60
72814;DHT22;60945;48.516;-2.768;2023-02-15T06:57:56;9.50;61.10
72814;DHT22;60945;48.516;-2.768;2023-02-15T07:00:22;9.50;61.20
72814;DHT22;60945;48.516;-2.768;2023-02-15T07:02:53;9.40;61.70
72814;DHT22;60945;48.516;-2.768;2023-02-15T07:05:21;9.40;61.80
72814;DHT22;60945;48.516;-2.768;2023-02-15T07:07:47;9.40;62.00
72814;DHT22;60945;48.516;-2.768;2023-02-15T07:10:12;9.40;61.90
72814;DHT22;60945;48.516;-2.768;2023-02-15T07:12:41;9.50;61.80
72814;DHT22;60945;48.516;-2.768;2023-02-15T07:15:11;9.50;61.80
72814;DHT22;60945;48.516;-2.768;2023-02-15T07:17:37;9.40;61.90
72814;DHT22;60945;48.516;-2.768;2023-02-15T07:20:09;9.50;61.70
72814;DHT22;60945;48.516;-2.768;2023-02-15T07:22:36;9.70;61.80
72814;DHT22;60945;48.516;-2.768;2023-02-15T07:25:07;9.40;61.80
72814;DHT22;60945;48.516;-2.768;2023-02-15T07:27:33;9.40;62.00
72814;DHT22;60945;48.516;-2.768;2023-02-15T07:29:59;9.50;61.80
72814;DHT22;60945;48.516;-2.768;2023-02-15T07:32:28;9.40;62.20
72814;DHT22;60945;48.516;-2.768;2023-02-15T07:34:54;9.50;62.10
72814;DHT22;60945;48.516;-2.768;2023-02-15T07:37:20;9.50;62.10
72814;DHT22;60945;48.516;-2.768;2023-02-15T07:39:46;9.60;62.10
72814;DHT22;60945;48.516;-2.768;2023-02-15T07:42:11;9.50;61.70
72814;DHT22;60945;48.516;-2.768;2023-02-15T07:44:37;9.50;61.70
72814;DHT22;60945;48.516;-2.768;2023-02-15T07:47:03;9.40;62.00
72814;DHT22;60945;48.516;-2.768;2023-02-15T07:49:28;9.30;62.10
72814;DHT22;60945;48.516;-2.768;2023-02-15T07:51:54;9.30;62.20
72814;DHT22;60945;48.516;-2.768;2023-02-15T07:54:20;9.20;62.70
72814;DHT22;60945;48.516;-2.768;2023-02-15T07:56:45;9.50;62.00
72814;DHT22;60945;48.516;-2.768;2023-02-15T07:59:11;9.50;62.50
72814;DHT22;60945;48.516;-2.768;2023-02-15T08:01:38;9.50;61.80
72814;DHT22;60945;48.516;-2.768;2023-02-15T08:04:07;9.40;61.80
72814;DHT22;60945;48.516;-2.768;2023-02-15T08:06:35;9.50;61.60
72814;DHT22;60945;48.516;-2.768;2023-02-15T08:09:07;9.40;62.10
72814;DHT22;60945;48.516;-2.768;2023-02-15T08:11:35;9.60;61.70
72814;DHT22;60945;48.516;-2.768;2023-02-15T08:14:06;9.90;60.90
72814;DHT22;60945;48.516;-2.768;2023-02-15T08:16:55;9.90;61.00
72814;DHT22;60945;48.516;-2.768;2023-02-15T08:19:31;10.30;60.00
72814;DHT22;60945;48.516;-2.768;2023-02-15T08:22:00;10.50;59.50
72814;DHT22;60945;48.516;-2.768;2023-02-15T08:24:28;10.80;59.20
72814;DHT22;60945;48.516;-2.768;2023-02-15T08:26:55;11.00;58.20
72814;DHT22;60945;48.516;-2.768;2023-02-15T08:29:25;11.20;57.80
72814;DHT22;60945;48.516;-2.768;2023-02-15T08:32:00;11.60;56.90
72814;DHT22;60945;48.516;-2.768;2023-02-15T08:34:31;11.50;57.00
72814;DHT22;60945;48.516;-2.768;2023-02-15T08:36:59;11.50;57.10
72814;DHT22;60945;48.516;-2.768;2023-02-15T08:39:26;11.70;56.60
72814;DHT22;60945;48.516;-2.768;2023-02-15T08:41:51;11.90;56.20
72814;DHT22;60945;48.516;-2.768;2023-02-15T08:44:18;11.90;56.20
72814;DHT22;60945;48.516;-2.768;2023-02-15T08:46:45;12.00;56.50
72814;DHT22;60945;48.516;-2.768;2023-02-15T08:49:14;12.40;55.20
72814;DHT22;60945;48.516;-2.768;2023-02-15T08:51:40;12.60;55.00
72814;DHT22;60945;48.516;-2.768;2023-02-15T08:54:09;12.60;55.30
72814;DHT22;60945;48.516;-2.768;2023-02-15T08:56:38;13.00;54.20
72814;DHT22;60945;48.516;-2.768;2023-02-15T08:59:05;13.20;53.90
72814;DHT22;60945;48.516;-2.768;2023-02-15T09:01:33;13.30;54.00
72814;DHT22;60945;48.516;-2.768;2023-02-15T09:04:04;13.70;53.10
72814;DHT22;60945;48.516;-2.768;2023-02-15T09:06:31;13.40;53.80
72814;DHT22;60945;48.516;-2.768;2023-02-15T09:08:57;13.80;53.00
72814;DHT22;60945;48.516;-2.768;2023-02-15T09:11:26;14.10;53.00
72814;DHT22;60945;48.516;-2.768;2023-02-15T09:14:09;14.40;52.70
72814;DHT22;60945;48.516;-2.768;2023-02-15T09:16:40;14.80;51.60
72814;DHT22;60945;48.516;-2.768;2023-02-15T09:19:07;15.30;49.90
72814;DHT22;60945;48.516;-2.768;2023-02-15T09:21:37;16.20;48.30
72814;DHT22;60945;48.516;-2.768;2023-02-15T09:24:06;18.20;44.80
72814;DHT22;60945;48.516;-2.768;2023-02-15T09:26:34;19.00;42.30
72814;DHT22;60945;48.516;-2.768;2023-02-15T09:29:01;19.60;41.50
72814;DHT22;60945;48.516;-2.768;2023-02-15T09:31:31;19.70;40.50
72814;DHT22;60945;48.516;-2.768;2023-02-15T09:33:58;20.00;40.30
72814;DHT22;60945;48.516;-2.768;2023-02-15T09:36:31;19.90;40.30
72814;DHT22;60945;48.516;-2.768;2023-02-15T09:50:06;20.50;39.10
72814;DHT22;60945;48.516;-2.768;2023-02-15T10:00:44;17.00;45.50
72814;DHT22;60945;48.516;-2.768;2023-02-15T10:03:15;16.40;47.60
72814;DHT22;60945;48.516;-2.768;2023-02-15T10:06:22;15.40;50.10
72814;DHT22;60945;48.516;-2.768;2023-02-15T10:11:17;15.00;50.10
72814;DHT22;60945;48.516;-2.768;2023-02-15T10:25:31;14.80;52.00
72814;DHT22;60945;48.516;-2.768;2023-02-15T10:28:05;15.10;51.80
72814;DHT22;60945;48.516;-2.768;2023-02-15T10:55:55;14.90;50.40
72814;DHT22;60945;48.516;-2.768;2023-02-15T10:58:36;15.40;49.80
72814;DHT22;60945;48.516;-2.768;2023-02-15T11:06:31;15.50;47.80
72814;DHT22;60945;48.516;-2.768;2023-02-15T11:09:10;15.50;48.80
72814;DHT22;60945;48.516;-2.768;2023-02-15T11:11:40;15.60;47.80
72814;DHT22;60945;48.516;-2.768;2023-02-15T11:14:39;15.60;47.70
72814;DHT22;60945;48.516;-2.768;2023-02-15T11:17:11;15.90;47.80
72814;DHT22;60945;48.516;-2.768;2023-02-15T11:22:22;16.10;46.50
72814;DHT22;60945;48.516;-2.768;2023-02-15T11:24:48;16.20;46.20
72814;DHT22;60945;48.516;-2.768;2023-02-15T11:27:20;16.10;46.50
72814;DHT22;60945;48.516;-2.768;2023-02-15T11:30:05;16.30;46.60
72814;DHT22;60945;48.516;-2.768;2023-02-15T11:32:38;16.10;46.00
72814;DHT22;60945;48.516;-2.768;2023-02-15T11:38:31;16.20;45.20
72814;DHT22;60945;48.516;-2.768;2023-02-15T11:41:09;16.50;44.60
72814;DHT22;60945;48.516;-2.768;2023-02-15T11:44:14;16.40;44.90
72814;DHT22;60945;48.516;-2.768;2023-02-15T11:46:41;16.70;45.10
72814;DHT22;60945;48.516;-2.768;2023-02-15T11:49:35;16.80;45.50
72814;DHT22;60945;48.516;-2.768;2023-02-15T11:52:07;16.90;45.40
72814;DHT22;60945;48.516;-2.768;2023-02-15T11:54:35;16.90;44.70
72814;DHT22;60945;48.516;-2.768;2023-02-15T11:57:30;16.60;44.80
72814;DHT22;60945;48.516;-2.768;2023-02-15T12:00:14;16.40;44.00
72814;DHT22;60945;48.516;-2.768;2023-02-15T12:02:46;16.40;44.00
72814;DHT22;60945;48.516;-2.768;2023-02-15T12:05:21;16.30;43.70
72814;DHT22;60945;48.516;-2.768;2023-02-15T12:07:53;16.50;43.10
72814;DHT22;60945;48.516;-2.768;2023-02-15T12:10:28;16.30;42.60
72814;DHT22;60945;48.516;-2.768;2023-02-15T12:13:10;16.50;43.80
72814;DHT22;60945;48.516;-2.768;2023-02-15T12:15:37;16.70;43.60
72814;DHT22;60945;48.516;-2.768;2023-02-15T12:18:04;16.90;43.10
72814;DHT22;60945;48.516;-2.768;2023-02-15T12:20:32;17.10;42.30
72814;DHT22;60945;48.516;-2.768;2023-02-15T12:23:08;17.20;41.50
72814;DHT22;60945;48.516;-2.768;2023-02-15T12:25:42;17.10;40.60
72814;DHT22;60945;48.516;-2.768;2023-02-15T12:28:33;17.00;41.50
72814;DHT22;60945;48.516;-2.768;2023-02-15T12:31:01;16.90;41.90
72814;DHT22;60945;48.516;-2.768;2023-02-15T12:33:41;16.90;41.80
72814;DHT22;60945;48.516;-2.768;2023-02-15T12:36:29;16.90;41.50
72814;DHT22;60945;48.516;-2.768;2023-02-15T12:39:17;16.60;42.10
72814;DHT22;60945;48.516;-2.768;2023-02-15T12:41:57;16.70;42.30
72814;DHT22;60945;48.516;-2.768;2023-02-15T12:44:34;17.00;42.20
72814;DHT22;60945;48.516;-2.768;2023-02-15T12:49:43;17.20;41.60
72814;DHT22;60945;48.516;-2.768;2023-02-15T12:54:44;17.00;41.80
72814;DHT22;60945;48.516;-2.768;2023-02-15T12:57:26;17.00;42.20
72814;DHT22;60945;48.516;-2.768;2023-02-15T13:02:29;17.30;40.60
72814;DHT22;60945;48.516;-2.768;2023-02-15T13:04:56;17.40;40.70
72814;DHT22;60945;48.516;-2.768;2023-02-15T13:07:25;17.30;41.20
72814;DHT22;60945;48.516;-2.768;2023-02-15T13:09:55;17.50;40.70
72814;DHT22;60945;48.516;-2.768;2023-02-15T13:12:26;17.50;40.30
72814;DHT22;60945;48.516;-2.768;2023-02-15T13:14:56;17.60;39.50
72814;DHT22;60945;48.516;-2.768;2023-02-15T13:17:27;17.70;40.00
72814;DHT22;60945;48.516;-2.768;2023-02-15T13:20:17;17.50;40.50
72814;DHT22;60945;48.516;-2.768;2023-02-15T13:22:46;17.40;40.20
72814;DHT22;60945;48.516;-2.768;2023-02-15T13:25:22;17.70;40.30
72814;DHT22;60945;48.516;-2.768;2023-02-15T13:28:07;17.80;40.20
72814;DHT22;60945;48.516;-2.768;2023-02-15T13:30:40;18.00;39.40
72814;DHT22;60945;48.516;-2.768;2023-02-15T13:33:20;18.10;39.20
72814;DHT22;60945;48.516;-2.768;2023-02-15T13:38:55;18.30;39.20
72814;DHT22;60945;48.516;-2.768;2023-02-15T13:47:17;18.70;38.80
72814;DHT22;60945;48.516;-2.768;2023-02-15T13:50:10;18.90;39.20
72814;DHT22;60945;48.516;-2.768;2023-02-15T13:52:48;19.10;39.20
72814;DHT22;60945;48.516;-2.768;2023-02-15T14:00:40;22.60;33.80
72814;DHT22;60945;48.516;-2.768;2023-02-15T14:19:39;28.30;26.70
72814;DHT22;60945;48.516;-2.768;2023-02-15T14:25:25;28.20;27.50
72814;DHT22;60945;48.516;-2.768;2023-02-15T14:30:46;27.30;28.50
72814;DHT22;60945;48.516;-2.768;2023-02-15T14:35:41;27.00;29.60
72814;DHT22;60945;48.516;-2.768;2023-02-15T14:40:56;27.40;29.40
72814;DHT22;60945;48.516;-2.768;2023-02-15T14:46:36;26.70;29.90
72814;DHT22;60945;48.516;-2.768;2023-02-15T14:49:15;27.20;29.70
72814;DHT22;60945;48.516;-2.768;2023-02-15T14:59:56;28.40;28.20
72814;DHT22;60945;48.516;-2.768;2023-02-15T15:05:11;27.90;29.10
72814;DHT22;60945;48.516;-2.768;2023-02-15T15:07:45;27.20;29.80
72814;DHT22;60945;48.516;-2.768;2023-02-15T15:15:33;27.00;30.00
72814;DHT22;60945;48.516;-2.768;2023-02-15T15:20:53;25.50;31.50
72814;DHT22;60945;48.516;-2.768;2023-02-15T15:25:51;23.30;34.80
72814;DHT22;60945;48.516;-2.768;2023-02-15T15:43:19;20.30;41.00
72814;DHT22;60945;48.516;-2.768;2023-02-15T15:46:13;19.40;43.00
72814;DHT22;60945;48.516;-2.768;2023-02-15T15:48:45;19.00;44.10
72814;DHT22;60945;48.516;-2.768;2023-02-15T15:51:17;18.80;44.90
72814;DHT22;60945;48.516;-2.768;2023-02-15T15:53:46;18.50;45.70
72814;DHT22;60945;48.516;-2.768;2023-02-15T15:56:19;18.30;46.20
72814;DHT22;60945;48.516;-2.768;2023-02-15T15:58:57;18.50;46.30
72814;DHT22;60945;48.516;-2.768;2023-02-15T16:01:28;18.30;46.70
72814;DHT22;60945;48.516;-2.768;2023-02-15T16:03:56;18.20;47.30
72814;DHT22;60945;48.516;-2.768;2023-02-15T16:06:32;18.20;47.30
72814;DHT22;60945;48.516;-2.768;2023-02-15T16:09:17;18.40;47.00
72814;DHT22;60945;48.516;-2.768;2023-02-15T16:11:46;18.10;47.60
72814;DHT22;60945;48.516;-2.768;2023-02-15T16:14:16;18.00;48.20
72814;DHT22;60945;48.516;-2.768;2023-02-15T16:16:49;18.00;48.20
72814;DHT22;60945;48.516;-2.768;2023-02-15T16:19:22;18.10;48.10
72814;DHT22;60945;48.516;-2.768;2023-02-15T16:21:49;17.80;48.60
72814;DHT22;60945;48.516;-2.768;2023-02-15T16:24:22;17.70;49.30
72814;DHT22;60945;48.516;-2.768;2023-02-15T16:29:47;17.90;49.40
72814;DHT22;60945;48.516;-2.768;2023-02-15T16:32:21;17.70;49.90
72814;DHT22;60945;48.516;-2.768;2023-02-15T16:37:19;18.00;50.50
72814;DHT22;60945;48.516;-2.768;2023-02-15T16:39:47;18.00;51.30
72814;DHT22;60945;48.516;-2.768;2023-02-15T16:42:20;18.00;51.90
72814;DHT22;60945;48.516;-2.768;2023-02-15T16:44:50;17.80;52.40
72814;DHT22;60945;48.516;-2.768;2023-02-15T16:47:21;17.70;52.10
72814;DHT22;60945;48.516;-2.768;2023-02-15T16:49:50;17.70;53.10
72814;DHT22;60945;48.516;-2.768;2023-02-15T16:52:24;17.10;51.80
72814;DHT22;60945;48.516;-2.768;2023-02-15T16:54:54;16.70;52.40
72814;DHT22;60945;48.516;-2.768;2023-02-15T16:57:24;16.70;52.60
72814;DHT22;60945;48.516;-2.768;2023-02-15T16:59:54;17.00;52.50
72814;DHT22;60945;48.516;-2.768;2023-02-15T17:02:24;17.00;51.90
72814;DHT22;60945;48.516;-2.768;2023-02-15T17:05:15;17.10;52.80
72814;DHT22;60945;48.516;-2.768;2023-02-15T17:07:50;17.10;51.70
72814;DHT22;60945;48.516;-2.768;2023-02-15T17:12:54;16.90;53.20
72814;DHT22;60945;48.516;-2.768;2023-02-15T17:15:35;16.80;51.90
72814;DHT22;60945;48.516;-2.768;2023-02-15T17:18:11;16.80;52.10
72814;DHT22;60945;48.516;-2.768;2023-02-15T17:20:40;16.90;52.00
72814;DHT22;60945;48.516;-2.768;2023-02-15T17:24:03;16.30;53.10
72814;DHT22;60945;48.516;-2.768;2023-02-15T17:28:38;16.00;53.80
72814;DHT22;60945;48.516;-2.768;2023-02-15T17:31:14;15.90;54.00
72814;DHT22;60945;48.516;-2.768;2023-02-15T17:33:43;15.80;54.40
72814;DHT22;60945;48.516;-2.768;2023-02-15T17:36:20;15.80;54.40
72814;DHT22;60945;48.516;-2.768;2023-02-15T17:41:23;16.20;54.20
72814;DHT22;60945;48.516;-2.768;2023-02-15T17:43:49;16.30;54.00
72814;DHT22;60945;48.516;-2.768;2023-02-15T17:46:14;16.20;53.40
72814;DHT22;60945;48.516;-2.768;2023-02-15T17:48:46;16.20;53.40
72814;DHT22;60945;48.516;-2.768;2023-02-15T17:51:13;16.20;53.80
72814;DHT22;60945;48.516;-2.768;2023-02-15T17:53:40;16.40;54.20
72814;DHT22;60945;48.516;-2.768;2023-02-15T17:56:05;16.10;53.80
72814;DHT22;60945;48.516;-2.768;2023-02-15T17:58:38;15.90;54.80
72814;DHT22;60945;48.516;-2.768;2023-02-15T18:01:07;16.00;54.70
72814;DHT22;60945;48.516;-2.768;2023-02-15T18:03:54;16.20;54.00
72814;DHT22;60945;48.516;-2.768;2023-02-15T18:06:40;16.00;54.70
72814;DHT22;60945;48.516;-2.768;2023-02-15T18:09:25;15.80;55.50
72814;DHT22;60945;48.516;-2.768;2023-02-15T18:12:33;16.00;55.40
72814;DHT22;60945;48.516;-2.768;2023-02-15T18:15:01;15.80;55.60
72814;DHT22;60945;48.516;-2.768;2023-02-15T18:17:38;15.70;55.80
72814;DHT22;60945;48.516;-2.768;2023-02-15T18:20:28;15.30;56.70
72814;DHT22;60945;48.516;-2.768;2023-02-15T18:22:55;15.40;56.30
72814;DHT22;60945;48.516;-2.768;2023-02-15T18:25:22;15.40;56.60
72814;DHT22;60945;48.516;-2.768;2023-02-15T18:27:50;15.40;56.40
72814;DHT22;60945;48.516;-2.768;2023-02-15T18:30:20;15.60;56.10
72814;DHT22;60945;48.516;-2.768;2023-02-15T18:32:49;15.40;56.10
72814;DHT22;60945;48.516;-2.768;2023-02-15T18:35:18;15.20;57.20
72814;DHT22;60945;48.516;-2.768;2023-02-15T18:37:45;15.20;56.90
72814;DHT22;60945;48.516;-2.768;2023-02-15T18:40:29;15.20;56.50
72814;DHT22;60945;48.516;-2.768;2023-02-15T18:42:55;15.20;56.30
72814;DHT22;60945;48.516;-2.768;2023-02-15T18:45:24;14.80;57.00
72814;DHT22;60945;48.516;-2.768;2023-02-15T18:47:53;14.80;57.20
72814;DHT22;60945;48.516;-2.768;2023-02-15T18:50:20;15.00;56.70
72814;DHT22;60945;48.516;-2.768;2023-02-15T18:52:48;14.90;57.00
72814;DHT22;60945;48.516;-2.768;2023-02-15T18:57:44;14.90;56.90
72814;DHT22;60945;48.516;-2.768;2023-02-15T19:00:25;14.80;57.40
72814;DHT22;60945;48.516;-2.768;2023-02-15T19:02:53;14.90;57.10